Varysburg, New York
Current Conditions -  °F | °C
As of 11:43 PM on Saturday 20 Dec 2014 (Local Time) from KBUF Reporting Station
Scattered Clouds Scattered Clouds  
Wind Chill: 22°   Ceiling: Unl
Heat Index: 27°   Visibility: 10mi
Dew Point: 22°   Wind: 5mph
Humidity: 81%   Direction: 170°S
Pressure: 30.26"   Gusts: NA
Location:  42.76°N, 78.31°W
Report Text: KBUF 210443Z 17004KT 10SM SCT028 SCT075 M03/M06 A3026 RMK AO2 T10281056
Loading
Personal Weather Stations






























Interactive Weather Map New forecast layout! Learn more

10-Day Weather Forecast

Advertisements
Track Severe Weather on mobile